Time;durP1;ratioP1;P1;durP2;ratioP2;P2;SDS_P1;SDS_P2;PMS_P1;PMS_P2;Temp;Humidity;BMP_temperature;BMP_pressure;BME280_temperature;BME280_humidity;BME280_pressure;Samples;Min_cycle;Max_cycle;Signal;HPM_P1;HPM_P2
2022/08/31 00:04:32;;;;;;;4.20;1.63;;;;;;;23.15;49.04;102748.00;5035753;28;20123;-82
2022/08/31 00:06:58;;;;;;;3.25;1.52;;;;;;;23.05;49.05;102742.94;5035709;28;20064;-81
2022/08/31 00:09:24;;;;;;;3.90;1.90;;;;;;;23.12;48.98;102742.31;5035690;28;20029;-81
2022/08/31 00:11:50;;;;;;;6.45;1.92;;;;;;;23.12;49.29;102743.13;5034369;28;20117;-81
2022/08/31 00:14:16;;;;;;;3.28;1.88;;;;;;;23.14;49.17;102726.88;5035501;28;20029;-81
2022/08/31 00:16:43;;;;;;;7.07;2.72;;;;;;;23.14;49.24;102726.88;5035649;28;20087;-81
2022/08/31 00:19:10;;;;;;;3.88;1.70;;;;;;;23.14;49.43;102728.84;5034067;28;20030;-83
2022/08/31 00:21:37;;;;;;;10.50;2.92;;;;;;;23.16;49.62;102727.31;5035429;28;20400;-81
2022/08/31 00:24:03;;;;;;;5.22;2.60;;;;;;;23.13;50.03;102733.63;5035406;28;20083;-81
2022/08/31 00:26:29;;;;;;;6.80;2.38;;;;;;;23.13;49.79;102736.41;5035357;28;20025;-81
2022/08/31 00:28:55;;;;;;;3.53;2.67;;;;;;;23.39;49.52;102747.16;5034037;28;20040;-81
2022/08/31 00:31:21;;;;;;;7.65;2.67;;;;;;;23.42;49.51;102743.66;5035298;28;20120;-81
2022/08/31 00:33:51;;;;;;;5.22;2.42;;;;;;;23.43;49.67;102736.94;5035163;28;20095;-81
2022/08/31 00:36:18;;;;;;;5.57;2.72;;;;;;;23.32;49.92;102734.97;5035182;28;20048;-82
2022/08/31 00:38:45;;;;;;;7.72;3.05;;;;;;;23.26;50.34;102738.00;5034952;28;20037;-81
2022/08/31 00:41:10;;;;;;;3.70;2.50;;;;;;;23.26;50.40;102738.00;5034760;28;20021;-82
2022/08/31 00:43:47;;;;;;;6.70;2.50;;;;;;;23.17;50.79;102731.75;5035012;28;20067;-82
2022/08/31 00:46:20;;;;;;;5.05;2.60;;;;;;;23.17;51.25;102734.53;5034732;28;20045;-81
2022/08/31 00:48:53;;;;;;;6.00;2.80;;;;;;;23.08;51.52;102730.25;5034919;28;20025;-81
2022/08/31 00:51:19;;;;;;;7.88;2.88;;;;;;;23.07;51.81;102729.44;5034888;28;20026;-81
2022/08/31 00:53:46;;;;;;;6.03;2.88;;;;;;;22.84;52.48;102737.44;5034834;28;20032;-81
2022/08/31 00:56:13;;;;;;;7.57;3.30;;;;;;;22.95;52.65;102744.19;5034755;28;20017;-82
2022/08/31 00:58:39;;;;;;;10.57;3.72;;;;;;;23.03;52.24;102744.41;5033371;28;20436;-81
2022/08/31 01:01:07;;;;;;;9.43;3.20;;;;;;;22.91;52.54;102748.03;5033374;28;20026;-82
2022/08/31 01:03:33;;;;;;;11.77;4.28;;;;;;;22.85;52.43;102749.41;5033346;28;20029;-81
2022/08/31 01:05:59;;;;;;;7.57;3.05;;;;;;;22.70;53.57;102751.72;5034664;28;20028;-81
2022/08/31 01:08:25;;;;;;;5.78;2.60;;;;;;;22.73;53.32;102752.19;5034562;28;20064;-82
2022/08/31 01:10:51;;;;;;;5.85;2.53;;;;;;;22.69;53.42;102752.06;5034492;28;20396;-81
2022/08/31 01:13:17;;;;;;;9.02;2.72;;;;;;;22.77;53.25;102753.13;5034452;28;20021;-81
2022/08/31 01:15:54;;;;;;;9.77;3.08;;;;;;;22.83;53.45;102744.19;5034709;28;20029;-81
2022/08/31 01:18:22;;;;;;;6.43;2.83;;;;;;;22.91;52.84;102748.84;5033031;28;20033;-83
2022/08/31 01:21:14;;;;;;;6.05;3.10;;;;;;;22.89;52.82;102740.00;5030307;28;20025;-82
2022/08/31 01:23:43;;;;;;;5.93;2.80;;;;;;;22.88;52.60;102737.56;5034066;28;20033;-81
2022/08/31 01:26:12;;;;;;;5.22;2.58;;;;;;;23.01;52.07;102736.41;5034280;28;20503;-81
2022/08/31 01:28:37;;;;;;;4.18;2.03;;;;;;;22.94;51.83;102733.41;5034111;28;20040;-82
2022/08/31 01:31:08;;;;;;;5.68;2.20;;;;;;;22.74;51.95;102737.06;5034223;28;20392;-81
2022/08/31 01:33:35;;;;;;;7.43;2.55;;;;;;;22.73;51.87;102733.47;5032814;28;20025;-81
2022/08/31 01:36:01;;;;;;;11.23;2.92;;;;;;;22.66;51.88;102736.03;5032803;28;20095;-82
2022/08/31 01:38:27;;;;;;;7.05;2.88;;;;;;;22.84;51.41;102731.06;5032274;28;20120;-82
2022/08/31 01:40:56;;;;;;;6.03;2.88;;;;;;;22.75;51.77;102733.13;5034192;28;20384;-81
2022/08/31 01:43:22;;;;;;;7.65;2.08;;;;;;;22.79;51.28;102726.53;5032616;28;20017;-81
2022/08/31 01:45:48;;;;;;;15.23;3.78;;;;;;;22.87;51.03;102724.81;5033640;28;20044;-81
2022/08/31 01:48:14;;;;;;;4.47;1.77;;;;;;;22.81;51.19;102737.31;5033811;28;20055;-81
2022/08/31 01:50:40;;;;;;;11.25;2.63;;;;;;;22.77;51.05;102730.81;5032470;28;20498;-82
2022/08/31 01:53:06;;;;;;;8.27;2.75;;;;;;;22.73;51.14;102727.09;5033070;28;20026;-82
2022/08/31 01:55:32;;;;;;;9.88;2.80;;;;;;;22.85;50.48;102733.53;5032341;28;20034;-81
2022/08/31 01:57:58;;;;;;;4.00;1.80;;;;;;;22.71;50.92;102730.25;5033541;28;20112;-81
2022/08/31 02:00:24;;;;;;;5.95;2.00;;;;;;;22.84;50.14;102737.44;5033594;28;20029;-81
2022/08/31 02:02:50;;;;;;;5.25;2.33;;;;;;;22.88;50.18;102732.00;5033548;28;20035;-81
2022/08/31 02:05:16;;;;;;;8.80;2.85;;;;;;;22.93;50.22;102723.41;5033535;28;20033;-82
2022/08/31 02:07:41;;;;;;;6.60;2.05;;;;;;;22.95;50.34;102732.22;5032185;28;20033;-82
2022/08/31 02:10:08;;;;;;;5.85;2.28;;;;;;;22.93;50.53;102732.59;5033433;28;20033;-81
2022/08/31 02:12:33;;;;;;;4.88;2.10;;;;;;;22.82;50.47;102737.00;5033347;28;20032;-81
2022/08/31 02:14:59;;;;;;;4.93;2.03;;;;;;;22.84;50.08;102736.63;5033315;28;20034;-81
2022/08/31 02:17:25;;;;;;;9.93;2.35;;;;;;;22.88;50.16;102729.22;5033249;28;20040;-82
2022/08/31 02:19:50;;;;;;;13.60;2.53;;;;;;;22.84;49.93;102731.88;5033168;28;20103;-81
2022/08/31 02:22:16;;;;;;;10.63;2.72;;;;;;;22.83;50.26;102733.03;5033256;28;20021;-82
2022/08/31 02:24:42;;;;;;;14.52;2.28;;;;;;;22.87;50.39;102730.38;5031798;28;20083;-81
2022/08/31 02:27:08;;;;;;;6.03;2.00;;;;;;;22.90;50.48;102724.94;5033147;28;20392;-82
2022/08/31 02:29:34;;;;;;;5.60;1.95;;;;;;;22.88;50.50;102727.25;5033093;28;20098;-81
2022/08/31 02:32:00;;;;;;;8.60;2.65;;;;;;;22.87;50.95;102722.81;5031907;28;20053;-81
2022/08/31 02:34:26;;;;;;;10.60;2.83;;;;;;;22.89;50.68;102728.84;5033011;28;20053;-81
2022/08/31 02:36:52;;;;;;;7.25;2.42;;;;;;;22.93;50.85;102723.41;5031713;28;20037;-81
2022/08/31 02:39:18;;;;;;;12.68;3.67;;;;;;;22.88;50.88;102720.84;5032840;28;20033;-81
2022/08/31 02:41:43;;;;;;;7.60;2.45;;;;;;;22.83;50.79;102732.22;5033067;28;20029;-81
2022/08/31 02:44:09;;;;;;;10.32;2.40;;;;;;;22.87;50.63;102733.97;5031312;28;20518;-81
2022/08/31 02:46:35;;;;;;;8.70;2.83;;;;;;;22.76;50.81;102732.00;5032833;28;20029;-82
2022/08/31 02:49:01;;;;;;;9.95;2.67;;;;;;;22.76;51.21;102718.88;5032748;28;20464;-82
2022/08/31 02:51:27;;;;;;;7.78;2.53;;;;;;;22.71;51.08;102727.44;5031402;28;20036;-81
2022/08/31 02:53:52;;;;;;;10.68;2.78;;;;;;;22.78;50.62;102727.69;5032685;28;20029;-82
2022/08/31 02:56:18;;;;;;;6.72;2.47;;;;;;;22.80;50.44;102730.94;5032683;28;20025;-81
2022/08/31 02:58:45;;;;;;;7.25;2.65;;;;;;;22.70;50.67;102721.06;5032555;28;20164;-84
2022/08/31 03:01:10;;;;;;;9.43;2.47;;;;;;;22.71;50.76;102733.84;5032720;28;20029;-81
2022/08/31 03:03:37;;;;;;;8.50;2.47;;;;;;;22.76;50.55;102729.22;5032510;28;20032;-81
2022/08/31 03:06:03;;;;;;;11.63;2.80;;;;;;;22.75;50.37;102722.81;5032587;28;20033;-82
2022/08/31 03:08:30;;;;;;;7.28;2.13;;;;;;;22.80;50.37;102727.34;5032544;28;20036;-81
2022/08/31 03:10:56;;;;;;;5.95;2.50;;;;;;;22.97;49.77;102725.16;5032486;28;20044;-82
2022/08/31 03:13:21;;;;;;;8.65;2.50;;;;;;;22.94;49.67;102719.47;5031303;28;20108;-81
2022/08/31 03:15:47;;;;;;;9.55;2.58;;;;;;;22.96;49.29;102722.69;5032519;28;20100;-81
2022/08/31 03:18:12;;;;;;;11.60;2.63;;;;;;;22.86;49.34;102720.41;5031082;28;20029;-82
2022/08/31 03:20:38;;;;;;;8.43;2.70;;;;;;;22.92;49.24;102716.22;5031261;28;20029;-81
2022/08/31 03:23:04;;;;;;;13.00;2.58;;;;;;;22.85;49.18;102718.75;5032408;28;20061;-81
2022/08/31 03:25:30;;;;;;;8.40;2.40;;;;;;;22.75;49.21;102722.81;5032909;28;20118;-81
2022/08/31 03:27:56;;;;;;;5.93;2.20;;;;;;;22.55;49.64;102718.97;5032381;28;20021;-81
2022/08/31 03:30:22;;;;;;;5.88;2.53;;;;;;;22.55;49.91;102723.72;5032357;28;20231;-82
2022/08/31 03:32:49;;;;;;;12.55;2.58;;;;;;;22.56;49.65;102720.59;5031024;28;20373;-82
2022/08/31 03:35:16;;;;;;;6.97;2.03;;;;;;;22.40;50.25;102719.66;5031026;28;20026;-81
2022/08/31 03:37:43;;;;;;;6.47;2.08;;;;;;;22.50;49.83;102719.19;5032289;28;20040;-82
2022/08/31 03:40:09;;;;;;;5.22;2.28;;;;;;;22.44;50.18;102720.56;5030875;28;20029;-84
2022/08/31 03:42:34;;;;;;;7.72;2.67;;;;;;;22.33;50.07;102717.44;5032311;28;20476;-82
2022/08/31 03:45:00;;;;;;;7.82;2.15;;;;;;;22.30;50.06;102720.94;5032044;28;20046;-81
2022/08/31 03:47:26;;;;;;;7.05;1.90;;;;;;;22.55;49.17;102730.13;5032195;28;20033;-81
2022/08/31 03:49:52;;;;;;;11.52;2.40;;;;;;;22.59;48.52;102736.59;5030839;28;20064;-81
2022/08/31 03:52:20;;;;;;;5.60;1.70;;;;;;;22.50;48.66;102732.31;5032142;28;20025;-81
2022/08/31 03:54:47;;;;;;;4.80;1.40;;;;;;;22.63;48.14;102736.75;5032129;28;20051;-81
2022/08/31 03:57:13;;;;;;;5.47;2.20;;;;;;;22.61;47.99;102734.31;5032231;28;20029;-81
2022/08/31 03:59:38;;;;;;;4.03;1.80;;;;;;;22.60;47.50;102731.88;5032072;28;20112;-81
2022/08/31 04:02:04;;;;;;;10.45;2.22;;;;;;;22.47;47.78;102727.44;5032066;28;20109;-82
2022/08/31 04:04:30;;;;;;;5.57;1.40;;;;;;;22.49;47.17;102731.50;5032058;28;20085;-81
2022/08/31 04:06:55;;;;;;;8.23;2.30;;;;;;;22.55;46.71;102734.88;5032085;28;20052;-81
2022/08/31 04:09:21;;;;;;;4.85;1.23;;;;;;;22.44;46.80;102734.50;5032155;28;20033;-81
2022/08/31 04:11:47;;;;;;;4.30;1.55;;;;;;;22.57;46.75;102733.34;5032078;28;20065;-81
2022/08/31 04:14:14;;;;;;;4.20;1.80;;;;;;;22.63;46.37;102731.16;5031985;28;20472;-81
2022/08/31 04:16:42;;;;;;;4.53;1.63;;;;;;;22.77;46.29;102730.81;5033584;28;20064;-81
2022/08/31 04:19:08;;;;;;;4.78;1.55;;;;;;;22.69;46.22;102736.16;5035594;28;20500;-81
2022/08/31 04:21:34;;;;;;;3.42;1.38;;;;;;;22.69;46.26;102733.38;5035472;28;20025;-82
2022/08/31 04:24:01;;;;;;;4.45;1.70;;;;;;;22.72;46.25;102731.84;5034147;28;20480;-81
2022/08/31 04:26:31;;;;;;;7.82;2.13;;;;;;;22.73;46.08;102735.47;5035537;28;20029;-81
2022/08/31 04:28:56;;;;;;;3.90;1.70;;;;;;;22.69;45.92;102733.38;5034011;28;20040;-81
2022/08/31 04:31:24;;;;;;;4.57;1.63;;;;;;;22.63;46.24;102729.19;5033977;28;20033;-82
2022/08/31 04:33:51;;;;;;;4.53;1.40;;;;;;;22.42;46.35;102723.72;5035235;28;20037;-81
2022/08/31 04:36:19;;;;;;;3.75;1.52;;;;;;;22.46;46.21;102721.06;5035179;28;20061;-82
2022/08/31 04:38:46;;;;;;;5.70;1.60;;;;;;;22.52;46.28;102724.41;5035106;28;20120;-81
2022/08/31 04:41:15;;;;;;;5.57;1.67;;;;;;;22.50;45.85;102735.09;5033782;28;20031;-81
2022/08/31 04:43:45;;;;;;;5.43;2.85;;;;;;;22.40;45.99;102734.41;5035247;28;20030;-81
2022/08/31 04:46:10;;;;;;;3.33;1.70;;;;;;;22.32;45.76;102726.97;5033637;28;20050;-81
2022/08/31 04:48:37;;;;;;;3.60;1.48;;;;;;;22.41;45.14;102729.63;5034749;28;20030;-81
2022/08/31 04:51:10;;;;;;;7.65;1.42;;;;;;;22.39;45.26;102732.78;5033650;28;20021;-81
2022/08/31 04:53:36;;;;;;;5.32;1.98;;;;;;;22.36;45.44;102727.88;5034901;28;20029;-81
2022/08/31 04:56:13;;;;;;;8.55;3.00;;;;;;;22.39;45.28;102732.78;5034843;28;20052;-81
2022/08/31 04:59:00;;;;;;;5.97;1.75;;;;;;;22.31;45.72;102730.09;5033479;28;20029;-82
2022/08/31 05:01:29;;;;;;;4.45;1.88;;;;;;;22.37;45.42;102734.28;5034531;28;20030;-82
2022/08/31 05:03:56;;;;;;;4.45;1.52;;;;;;;22.30;45.01;102742.41;5034754;28;20100;-81
2022/08/31 05:06:25;;;;;;;3.45;1.52;;;;;;;22.35;44.89;102736.56;5033386;28;20036;-81
2022/08/31 05:08:55;;;;;;;6.05;2.47;;;;;;;22.35;44.85;102737.38;5034620;28;20034;-81
2022/08/31 05:11:22;;;;;;;4.72;1.60;;;;;;;22.32;44.90;102726.97;5034654;28;20030;-81
2022/08/31 05:13:48;;;;;;;5.60;2.13;;;;;;;22.39;44.81;102734.75;5033197;28;20029;-82
2022/08/31 05:16:16;;;;;;;5.63;1.80;;;;;;;22.35;44.97;102737.38;5033271;28;20018;-81
2022/08/31 05:18:43;;;;;;;6.15;1.70;;;;;;;22.36;44.66;102732.63;5033089;28;20505;-81
2022/08/31 05:21:16;;;;;;;4.13;1.70;;;;;;;22.48;44.57;102734.63;5034400;28;20030;-81
2022/08/31 05:23:45;;;;;;;3.67;1.77;;;;;;;22.45;44.07;102744.50;5034388;28;20025;-81
2022/08/31 05:26:17;;;;;;;3.42;1.42;;;;;;;22.50;44.09;102749.84;5034608;28;20441;-83
2022/08/31 05:28:43;;;;;;;3.35;1.98;;;;;;;22.46;43.76;102748.91;5033173;28;20113;-81
2022/08/31 05:31:09;;;;;;;4.13;1.40;;;;;;;22.49;43.58;102742.63;5034242;28;20025;-81
2022/08/31 05:33:34;;;;;;;4.30;1.60;;;;;;;22.50;43.54;102744.25;5034249;28;20021;-81
2022/08/31 05:36:01;;;;;;;9.48;2.85;;;;;;;22.52;43.38;102744.75;5034118;28;20109;-82
2022/08/31 05:38:27;;;;;;;4.20;1.50;;;;;;;22.60;43.30;102743.03;5033959;28;20021;-82
2022/08/31 05:40:55;;;;;;;4.47;1.55;;;;;;;22.63;43.69;102754.25;5034145;28;20167;-82
2022/08/31 05:43:21;;;;;;;6.20;2.30;;;;;;;22.66;43.81;102750.78;5033928;28;20025;-82
2022/08/31 05:45:47;;;;;;;8.35;2.15;;;;;;;22.75;43.83;102755.41;5033784;28;20045;-80
2022/08/31 05:48:15;;;;;;;3.30;1.67;;;;;;;22.68;43.53;102751.25;5033920;28;20029;-81
2022/08/31 05:50:40;;;;;;;5.30;2.08;;;;;;;22.66;43.67;102750.78;5033882;28;20376;-81
2022/08/31 05:53:06;;;;;;;10.77;2.30;;;;;;;22.77;43.31;102767.06;5033694;28;20024;-82
2022/08/31 05:55:32;;;;;;;6.13;2.45;;;;;;;22.83;43.41;102751.72;5033757;28;20434;-82
2022/08/31 05:57:58;;;;;;;5.22;1.75;;;;;;;22.85;43.00;102758.59;5032350;28;20056;-82
2022/08/31 06:00:24;;;;;;;3.90;1.75;;;;;;;22.74;43.50;102753.78;5033559;28;20029;-80
2022/08/31 06:02:50;;;;;;;5.97;1.80;;;;;;;22.87;42.88;102749.88;5031998;28;20021;-80
2022/08/31 06:05:16;;;;;;;4.65;1.65;;;;;;;22.90;42.78;102746.44;5032249;28;20022;-81
2022/08/31 06:07:42;;;;;;;3.10;1.77;;;;;;;22.81;43.25;102749.28;5033577;28;20087;-81
2022/08/31 06:10:08;;;;;;;8.88;1.70;;;;;;;22.91;43.33;102748.03;5033419;28;20127;-81
2022/08/31 06:12:36;;;;;;;5.43;1.60;;;;;;;22.96;43.21;102751.38;5033376;28;20026;-80
2022/08/31 06:15:03;;;;;;;3.17;1.50;;;;;;;22.87;43.21;102744.31;5032144;28;20048;-80
2022/08/31 06:17:31;;;;;;;3.08;1.33;;;;;;;22.92;43.15;102753.25;5033412;28;20108;-80
2022/08/31 06:19:57;;;;;;;4.20;1.60;;;;;;;22.97;42.94;102747.47;5033121;28;20068;-80
2022/08/31 06:22:24;;;;;;;6.35;1.65;;;;;;;22.97;42.77;102752.19;5033257;28;20021;-80
2022/08/31 06:24:50;;;;;;;3.90;1.40;;;;;;;23.12;42.73;102740.34;5031929;28;20029;-81
2022/08/31 06:27:16;;;;;;;3.38;1.33;;;;;;;23.16;42.48;102743.25;5033220;28;20084;-81
2022/08/31 06:29:43;;;;;;;5.18;1.60;;;;;;;23.21;42.46;102746.63;5033168;28;20037;-81
2022/08/31 06:32:09;;;;;;;2.38;1.42;;;;;;;23.05;42.53;102748.50;5033361;28;20079;-81
2022/08/31 06:34:36;;;;;;;3.35;1.40;;;;;;;23.10;42.29;102748.25;5032212;28;20108;-82
2022/08/31 06:37:03;;;;;;;2.30;1.27;;;;;;;23.16;42.03;102751.63;5031648;28;20025;-82
2022/08/31 06:39:29;;;;;;;4.57;1.85;;;;;;;23.17;42.32;102750.44;5032564;28;20025;-81
2022/08/31 06:41:55;;;;;;;4.30;1.80;;;;;;;23.17;42.59;102756.84;5032964;28;20610;-81
2022/08/31 06:44:22;;;;;;;2.70;1.48;;;;;;;23.11;42.67;102757.41;5032915;28;20396;-82
2022/08/31 06:46:50;;;;;;;7.00;1.60;;;;;;;23.17;42.90;102758.81;5032966;28;20505;-82
2022/08/31 06:49:16;;;;;;;2.80;1.85;;;;;;;23.24;42.32;102765.44;5032694;28;20096;-82
2022/08/31 06:51:42;;;;;;;2.53;1.55;;;;;;;23.23;42.24;102772.16;5031660;28;20089;-83
2022/08/31 06:54:10;;;;;;;7.45;1.63;;;;;;;23.35;42.06;102768.56;5031515;28;20018;-82
2022/08/31 06:56:36;;;;;;;3.20;1.38;;;;;;;23.49;42.14;102770.94;5032066;28;20388;-83
2022/08/31 06:59:04;;;;;;;5.88;2.00;;;;;;;23.56;42.19;102768.38;5032758;28;20035;-83
2022/08/31 07:01:31;;;;;;;4.63;1.50;;;;;;;23.60;42.18;102769.34;5030941;28;20119;-83
2022/08/31 07:03:59;;;;;;;5.13;1.80;;;;;;;23.67;41.90;102769.53;5032524;28;20427;-81
2022/08/31 07:06:28;;;;;;;5.47;1.77;;;;;;;23.77;41.97;102773.81;5032206;28;20032;-80
2022/08/31 07:08:57;;;;;;;5.50;1.70;;;;;;;23.71;41.90;102773.25;5032555;28;20017;-81
2022/08/31 07:11:38;;;;;;;4.40;1.30;;;;;;;23.67;41.73;102777.91;5031022;28;20621;-85
2022/08/31 07:14:11;;;;;;;8.23;1.67;;;;;;;23.72;41.42;102774.84;5018089;28;20033;-89
2022/08/31 07:16:37;;;;;;;10.55;1.98;;;;;;;23.68;41.76;102776.75;5023519;28;20024;-81
2022/08/31 07:19:05;;;;;;;4.53;1.80;;;;;;;23.58;41.69;102777.22;5031522;28;20026;-85
2022/08/31 07:21:34;;;;;;;4.32;1.30;;;;;;;23.54;41.53;102782.69;5031148;28;20122;-84
2022/08/31 07:24:02;;;;;;;3.60;1.60;;;;;;;23.71;41.36;102792.78;5019288;28;20765;-80
2022/08/31 07:26:34;;;;;;;8.90;1.52;;;;;;;23.71;41.33;102789.97;5006836;28;21188;-82
2022/08/31 07:29:05;;;;;;;4.75;1.35;;;;;;;23.77;41.04;102785.78;4997351;28;20026;-79
2022/08/31 07:31:41;;;;;;;4.10;1.38;;;;;;;23.80;40.72;102787.03;4996662;28;20488;-79
2022/08/31 07:34:09;;;;;;;1.92;1.08;;;;;;;23.72;40.73;102793.59;5015298;28;20025;-79
2022/08/31 07:42:07;;;;;;;2.58;1.38;;;;;;;23.74;40.85;102794.88;5015779;28;20112;-79
2022/08/31 07:42:10;;;;;;;3.53;1.38;;;;;;;23.84;39.99;102795.53;4998607;28;20103;-79
2022/08/31 07:44:37;;;;;;;5.17;1.73;;;;;;;23.79;39.79;102793.78;5015121;28;20060;-79
2022/08/31 07:47:03;;;;;;;3.13;1.17;;;;;;;23.77;39.88;102794.16;5015240;28;20358;-79
2022/08/31 07:49:29;;;;;;;6.93;1.77;;;;;;;23.94;39.97;102798.63;4995470;28;20116;-78
2022/08/31 07:51:56;;;;;;;3.92;1.40;;;;;;;23.93;40.15;102793.41;5017023;28;20030;-79
2022/08/31 07:54:26;;;;;;;2.55;1.55;;;;;;;23.96;40.24;102796.31;5018146;28;20029;-79
2022/08/31 07:57:02;;;;;;;3.17;1.00;;;;;;;24.07;40.21;102793.81;5007852;28;20042;-80
2022/08/31 07:59:31;;;;;;;5.18;1.42;;;;;;;24.08;40.06;102801.00;5017264;28;20090;-80
2022/08/31 08:02:00;;;;;;;2.38;1.70;;;;;;;24.16;40.19;102800.03;5017353;28;20029;-79
2022/08/31 08:04:27;;;;;;;4.57;1.43;;;;;;;24.09;40.40;102803.44;5035743;28;20029;-80
2022/08/31 08:06:54;;;;;;;8.40;1.77;;;;;;;24.08;40.77;102806.59;5018258;28;20057;-80
2022/08/31 08:09:25;;;;;;;4.35;1.60;;;;;;;24.15;40.12;102806.00;5008961;28;20030;-79
2022/08/31 08:11:56;;;;;;;4.45;1.35;;;;;;;24.12;40.12;102801.13;5009645;28;20026;-78
2022/08/31 08:14:23;;;;;;;3.65;1.20;;;;;;;24.26;39.53;102807.94;5005604;28;20113;-79
2022/08/31 08:16:48;;;;;;;3.95;1.17;;;;;;;24.17;39.40;102803.66;5007437;28;20037;-80
2022/08/31 08:19:14;;;;;;;4.45;1.40;;;;;;;24.24;39.28;102812.22;5015652;28;20017;-79
2022/08/31 08:21:42;;;;;;;2.83;1.30;;;;;;;24.22;39.22;102811.78;5025268;28;20029;-80
2022/08/31 08:24:09;;;;;;;3.60;0.98;;;;;;;24.31;39.49;102816.03;5022990;28;20022;-79
2022/08/31 08:26:35;;;;;;;2.80;1.30;;;;;;;24.42;39.50;102810.78;5024022;28;20096;-80
2022/08/31 08:29:04;;;;;;;3.50;1.50;;;;;;;24.34;39.98;102812.56;5022822;28;20030;-80
2022/08/31 08:31:30;;;;;;;4.55;1.38;;;;;;;24.57;39.61;102811.97;5015386;28;20080;-79
2022/08/31 08:33:55;;;;;;;4.65;1.55;;;;;;;24.57;39.62;102815.56;5022404;28;20030;-80
2022/08/31 08:36:21;;;;;;;4.57;1.15;;;;;;;24.69;39.10;102825.03;5009801;28;20590;-78
2022/08/31 08:38:50;;;;;;;1.73;1.38;;;;;;;24.54;38.66;102823.84;4999896;28;21072;-79
2022/08/31 08:41:28;;;;;;;2.83;1.40;;;;;;;24.26;38.89;102816.31;5008520;28;20415;-79
2022/08/31 08:43:56;;;;;;;2.75;1.40;;;;;;;24.34;38.29;102818.16;5004938;28;20022;-79
2022/08/31 08:46:42;;;;;;;4.65;1.25;;;;;;;24.24;38.39;102826.19;4998822;28;20597;-79
2022/08/31 08:49:23;;;;;;;4.40;1.13;;;;;;;24.44;38.23;102821.59;5017646;28;20022;-79
2022/08/31 08:52:11;;;;;;;2.40;0.98;;;;;;;24.38;38.32;102814.63;5017249;28;20028;-79
2022/08/31 08:54:42;;;;;;;3.45;2.35;;;;;;;24.26;38.02;102819.09;5016731;28;20112;-79
2022/08/31 08:57:29;;;;;;;2.90;1.30;;;;;;;24.34;37.74;102808.97;5018060;28;20033;-79
2022/08/31 08:59:58;;;;;;;2.42;1.05;;;;;;;24.21;38.13;102822.13;5000281;28;20034;-79
2022/08/31 09:02:36;;;;;;;2.63;1.00;;;;;;;24.16;38.49;102818.78;5010076;28;20026;-79
2022/08/31 09:05:34;;;;;;;5.45;1.30;;;;;;;24.11;38.38;102821.81;4997833;28;20080;-79
2022/08/31 09:08:23;;;;;;;5.32;1.30;;;;;;;24.11;38.15;102816.22;4988143;28;20044;-80
2022/08/31 09:11:18;;;;;;;3.00;1.30;;;;;;;24.12;38.52;102820.69;5007315;28;20025;-78
2022/08/31 09:14:23;;;;;;;4.40;1.30;;;;;;;24.25;37.38;102817.44;5017554;28;20061;-79
2022/08/31 09:17:15;;;;;;;2.70;0.82;;;;;;;24.41;36.40;102819.50;5015494;28;20129;-79
2022/08/31 09:20:04;;;;;;;10.70;1.58;;;;;;;24.28;37.01;102819.53;5017320;28;20021;-79
2022/08/31 09:22:45;;;;;;;2.83;1.20;;;;;;;24.39;36.60;102808.69;5016217;28;20025;-79
2022/08/31 09:25:19;;;;;;;3.90;1.50;;;;;;;24.35;36.40;102811.38;5016575;28;20029;-79
2022/08/31 09:27:57;;;;;;;2.17;1.10;;;;;;;24.42;36.43;102809.97;5016219;28;20013;-79
2022/08/31 09:30:45;;;;;;;2.90;1.20;;;;;;;24.33;37.13;102810.94;5034227;28;20041;-79
2022/08/31 09:33:33;;;;;;;3.20;1.63;;;;;;;24.28;36.81;102802.78;5034275;28;20384;-79
2022/08/31 09:36:15;;;;;;;4.97;1.67;;;;;;;24.31;36.99;102810.44;5034008;28;20423;-79
2022/08/31 09:38:44;;;;;;;2.63;1.23;;;;;;;24.39;37.33;102805.88;5017535;28;20018;-80
2022/08/31 09:41:29;;;;;;;2.63;1.20;;;;;;;24.11;37.33;102805.91;5017816;28;20057;-79
2022/08/31 09:44:19;;;;;;;2.95;1.00;;;;;;;24.22;36.89;102807.00;5015623;28;20040;-79
2022/08/31 09:46:52;;;;;;;5.45;1.55;;;;;;;24.18;37.17;102806.09;5017128;28;20036;-79
2022/08/31 09:49:24;;;;;;;9.38;1.60;;;;;;;24.41;37.08;102808.31;5007187;28;20018;-79
2022/08/31 09:51:51;;;;;;;3.60;1.15;;;;;;;24.44;36.34;102802.03;5010423;28;20610;-79
2022/08/31 09:57:10;;;;;;;5.18;1.50;;;;;;;24.53;36.86;102805.47;5017339;28;20522;-79
2022/08/31 09:59:46;;;;;;;4.10;1.02;;;;;;;24.38;37.35;102797.88;4997028;28;20073;-79
2022/08/31 10:02:23;;;;;;;6.72;1.65;;;;;;;24.53;36.84;102803.47;4996968;28;20092;-79
2022/08/31 10:04:51;;;;;;;3.13;1.30;;;;;;;24.28;36.83;102791.59;5016899;28;20025;-79
2022/08/31 10:07:36;;;;;;;4.55;1.35;;;;;;;24.24;37.26;102795.47;5017385;28;20033;-78
2022/08/31 10:10:06;;;;;;;6.05;2.10;;;;;;;24.30;37.00;102785.66;5016847;28;20508;-80
2022/08/31 10:12:39;;;;;;;4.10;1.10;;;;;;;24.41;36.35;102803.56;5016820;28;20586;-80
2022/08/31 10:15:15;;;;;;;1.70;1.00;;;;;;;24.40;36.45;102795.53;5016359;28;20044;-80
2022/08/31 10:17:54;;;;;;;2.20;1.30;;;;;;;24.35;37.17;102802.19;5016802;28;20028;-80
2022/08/31 10:20:29;;;;;;;3.00;1.70;;;;;;;24.58;36.90;102799.63;5016979;28;20026;-79
2022/08/31 10:23:05;;;;;;;10.35;2.05;;;;;;;24.45;37.30;102789.69;5015724;28;20079;-79
2022/08/31 10:25:37;;;;;;;2.92;1.48;;;;;;;24.47;37.18;102787.31;5000992;28;20033;-79
2022/08/31 10:28:13;;;;;;;6.47;1.25;;;;;;;24.61;36.87;102793.28;5013404;28;20025;-79
2022/08/31 10:30:59;;;;;;;7.35;1.83;;;;;;;24.86;36.78;102777.97;5013338;28;20033;-79
2022/08/31 10:36:32;;;;;;;4.03;1.33;;;;;;;24.71;36.09;102789.13;5013357;28;20053;-79
2022/08/31 10:38:58;;;;;;;3.85;1.73;;;;;;;24.76;35.99;102797.25;5012582;28;20459;-79
2022/08/31 10:41:27;;;;;;;77.82;8.90;;;;;;;24.91;35.75;102790.84;5013268;28;20026;-77
2022/08/31 10:44:05;;;;;;;101.18;12.00;;;;;;;24.85;36.13;102789.50;5013222;28;20484;-77
2022/08/31 10:46:31;;;;;;;13.85;3.17;;;;;;;24.78;36.06;102783.72;5013157;28;20029;-77
2022/08/31 10:48:58;;;;;;;17.65;3.17;;;;;;;25.06;36.10;102778.88;5013126;28;20117;-77
2022/08/31 10:51:55;;;;;;;3.47;1.60;;;;;;;25.24;35.96;102781.25;5013230;28;20022;-77
2022/08/31 10:54:46;;;;;;;6.25;1.60;;;;;;;25.02;36.25;102780.75;5004963;28;20074;-77
2022/08/31 10:57:39;;;;;;;3.33;1.35;;;;;;;25.23;35.48;102777.66;5011742;28;20109;-77
2022/08/31 11:00:40;;;;;;;8.57;1.77;;;;;;;25.28;35.85;102774.56;5012779;28;20037;-77
2022/08/31 11:03:12;;;;;;;3.20;1.52;;;;;;;25.14;36.13;102763.88;5012776;28;20080;-77
2022/08/31 11:06:31;;;;;;;10.18;2.33;;;;;;;25.45;36.02;102762.16;5011694;28;20025;-77
2022/08/31 11:09:44;;;;;;;8.63;2.10;;;;;;;25.20;36.51;102760.78;4951660;29;20074;-77
2022/08/31 11:12:17;;;;;;;29.95;4.75;;;;;;;25.52;36.21;102762.31;4948926;29;20035;-77
2022/08/31 11:14:59;;;;;;;5.28;1.92;;;;;;;25.65;35.79;102760.19;5009133;28;20088;-77
2022/08/31 11:17:31;;;;;;;7.25;2.05;;;;;;;25.62;36.15;102766.53;5012838;28;20476;-76
2022/08/31 11:19:59;;;;;;;5.85;1.95;;;;;;;25.73;36.22;102761.97;5012686;28;20030;-78
2022/08/31 11:22:40;;;;;;;5.27;1.43;;;;;;;25.85;36.22;102761.84;5012307;28;20097;-77
2022/08/31 11:25:36;;;;;;;4.95;1.77;;;;;;;25.62;36.76;102761.75;5012677;28;20026;-76
2022/08/31 11:28:09;;;;;;;5.90;1.52;;;;;;;25.85;36.67;102766.63;5015411;28;20553;-75
2022/08/31 11:30:44;;;;;;;5.28;1.88;;;;;;;25.97;36.36;102761.66;5013373;28;20033;-76
2022/08/31 11:33:18;;;;;;;12.65;1.73;;;;;;;25.97;36.13;102764.47;5021257;28;20095;-76
2022/08/31 11:35:59;;;;;;;7.03;1.67;;;;;;;25.64;37.31;102758.56;5015030;28;20022;-76
2022/08/31 11:39:00;;;;;;;4.47;1.80;;;;;;;26.02;36.63;102768.97;5016639;28;20021;-76
2022/08/31 11:41:47;;;;;;;3.65;1.30;;;;;;;26.13;36.29;102763.56;5019245;28;20040;-76
2022/08/31 11:44:32;;;;;;;6.80;2.05;;;;;;;26.10;36.65;102762.31;5004069;28;20036;-77
2022/08/31 11:47:27;;;;;;;4.07;1.50;;;;;;;25.80;37.72;102756.53;5019738;28;20052;-76
2022/08/31 11:49:55;;;;;;;5.68;1.60;;;;;;;25.70;37.97;102751.50;5009936;28;20028;-77
2022/08/31 11:52:23;;;;;;;15.75;2.33;;;;;;;26.04;37.92;102755.41;5018684;28;20029;-77